createdAt,value
2022-10-21T00:00:55.124Z,11.48
2022-10-21T00:03:24.520Z,10.40
2022-10-21T00:05:51.529Z,10.35
2022-10-21T00:08:20.177Z,10.07
2022-10-21T00:10:55.927Z,10.70
2022-10-21T00:13:23.262Z,11.23
2022-10-21T00:16:13.591Z,12.70
2022-10-21T00:18:42.866Z,13.45
2022-10-21T00:21:20.393Z,13.05
2022-10-21T00:23:48.331Z,10.80
2022-10-21T00:26:17.175Z,11.30
2022-10-21T00:28:43.877Z,14.68
2022-10-21T00:31:13.626Z,9.60
2022-10-21T00:33:40.930Z,22.63
2022-10-21T00:36:15.495Z,12.18
2022-10-21T00:38:46.311Z,14.00
2022-10-21T00:41:15.508Z,13.75
2022-10-21T00:44:08.765Z,11.10
2022-10-21T00:46:51.743Z,11.90
2022-10-21T00:49:27.874Z,10.18
2022-10-21T00:52:01.373Z,11.63
2022-10-21T00:54:31.093Z,11.70
2022-10-21T00:56:59.698Z,11.23
2022-10-21T00:59:34.128Z,12.32
2022-10-21T01:02:01.012Z,9.50
2022-10-21T01:04:30.160Z,11.38
2022-10-21T01:06:57.563Z,10.45
2022-10-21T01:09:26.023Z,10.57
2022-10-21T01:11:53.935Z,8.07
2022-10-21T01:14:37.723Z,10.48
2022-10-21T01:18:01.673Z,10.02
2022-10-21T01:20:58.042Z,6.13
2022-10-21T01:24:15.593Z,8.00
2022-10-21T01:27:36.147Z,8.07
2022-10-21T01:30:06.209Z,9.15
2022-10-21T01:32:51.848Z,10.77
2022-10-21T01:35:33.283Z,7.72
2022-10-21T01:38:31.328Z,7.95
2022-10-21T01:41:13.380Z,7.72
2022-10-21T01:44:05.926Z,12.75
2022-10-21T01:46:52.567Z,9.55
2022-10-21T01:49:31.565Z,11.52
2022-10-21T01:52:03.349Z,8.52
2022-10-21T01:54:43.740Z,11.15
2022-10-21T01:57:16.402Z,9.18
2022-10-21T01:59:46.978Z,10.48
2022-10-21T02:02:17.304Z,9.20
2022-10-21T02:04:47.655Z,9.82
2022-10-21T02:07:14.361Z,12.45
2022-10-21T02:09:41.061Z,10.50
2022-10-21T02:12:09.347Z,11.60
2022-10-21T02:14:59.796Z,12.30
2022-10-21T02:17:29.289Z,12.48
2022-10-21T02:20:03.208Z,8.50
2022-10-21T02:22:31.511Z,11.52
2022-10-21T02:25:25.801Z,13.80
2022-10-21T02:27:54.196Z,10.05
2022-10-21T02:30:23.304Z,13.68
2022-10-21T02:33:32.816Z,9.68
2022-10-21T02:36:17.020Z,11.65
2022-10-21T02:38:58.767Z,11.30
2022-10-21T02:41:28.624Z,12.25
2022-10-21T02:44:02.967Z,9.75
2022-10-21T02:46:44.292Z,15.52
2022-10-21T02:49:10.992Z,11.20
2022-10-21T02:51:37.862Z,9.98
2022-10-21T02:54:04.707Z,11.13
2022-10-21T02:56:31.604Z,12.13
2022-10-21T02:58:58.585Z,12.13
2022-10-21T03:01:28.559Z,9.73
2022-10-21T03:03:55.387Z,9.82
2022-10-21T03:06:22.148Z,10.85
2022-10-21T03:08:51.337Z,10.93
2022-10-21T03:11:18.109Z,11.52
2022-10-21T03:13:45.925Z,10.38
2022-10-21T03:16:12.698Z,11.10
2022-10-21T03:18:39.481Z,10.93
2022-10-21T03:21:08.812Z,11.32
2022-10-21T03:23:35.494Z,10.07
2022-10-21T03:26:02.201Z,10.02
2022-10-21T03:28:30.377Z,15.55
2022-10-21T03:30:57.172Z,10.35
2022-10-21T03:33:23.953Z,13.20
2022-10-21T03:35:54.498Z,9.85
2022-10-21T03:38:23.796Z,10.93
2022-10-21T03:40:53.213Z,10.20
2022-10-21T03:43:20.008Z,11.48
2022-10-21T03:45:48.049Z,10.38
2022-10-21T03:48:14.836Z,12.43
2022-10-21T03:50:41.848Z,9.60
2022-10-21T03:53:18.576Z,9.27
2022-10-21T03:55:56.501Z,8.65
2022-10-21T03:58:27.249Z,9.68
2022-10-21T04:00:54.978Z,8.95
2022-10-21T04:03:22.246Z,9.52
2022-10-21T04:05:48.973Z,9.00
2022-10-21T04:08:15.721Z,10.43
2022-10-21T04:10:42.486Z,8.88
2022-10-21T04:13:09.413Z,8.65
2022-10-21T04:15:36.143Z,9.80
2022-10-21T04:18:02.995Z,10.15
2022-10-21T04:20:29.699Z,13.20
2022-10-21T04:22:56.389Z,9.75
2022-10-21T04:25:23.178Z,9.43
2022-10-21T04:27:49.992Z,9.40
2022-10-21T04:30:16.720Z,9.35
2022-10-21T04:32:44.568Z,10.18
2022-10-21T04:35:11.275Z,13.15
2022-10-21T04:37:40.071Z,9.05
2022-10-21T04:40:08.675Z,11.90
2022-10-21T04:42:37.538Z,12.32
2022-10-21T04:45:04.681Z,9.70
2022-10-21T04:47:31.376Z,10.80
2022-10-21T04:49:58.153Z,10.65
2022-10-21T04:52:24.895Z,9.60
2022-10-21T04:54:51.654Z,10.38
2022-10-21T04:57:18.327Z,11.32
2022-10-21T04:59:45.103Z,12.00
2022-10-21T05:02:11.845Z,14.75
2022-10-21T05:04:38.510Z,10.68
2022-10-21T05:07:05.550Z,10.32
2022-10-21T05:09:32.267Z,10.02
2022-10-21T05:11:58.956Z,9.85
2022-10-21T05:14:25.705Z,11.38
2022-10-21T05:16:52.479Z,10.45
2022-10-21T05:19:19.275Z,10.55
2022-10-21T05:21:47.642Z,10.45
2022-10-21T05:24:20.494Z,11.25
2022-10-21T05:26:47.285Z,9.48
2022-10-21T05:29:14.303Z,9.40
2022-10-21T05:31:41.096Z,9.63
2022-10-21T05:34:07.836Z,8.68
2022-10-21T05:36:34.632Z,9.75
2022-10-21T05:39:01.828Z,8.35
2022-10-21T05:41:28.646Z,9.60
2022-10-21T05:43:55.419Z,9.30
2022-10-21T05:46:22.121Z,8.32
2022-10-21T05:51:15.539Z,11.13
2022-10-21T05:53:42.281Z,9.55
2022-10-21T05:56:09.307Z,8.10
2022-10-21T05:58:36.193Z,9.15
2022-10-21T06:01:03.873Z,8.70
2022-10-21T06:03:33.281Z,8.90
2022-10-21T06:06:05.706Z,6.47
2022-10-21T06:08:34.961Z,9.50
2022-10-21T06:11:09.048Z,8.98
2022-10-21T06:13:37.175Z,10.73
2022-10-21T06:18:39.050Z,9.75
2022-10-21T06:21:07.345Z,8.77
2022-10-21T06:23:34.798Z,9.98
2022-10-21T06:26:06.064Z,10.93
2022-10-21T06:28:36.780Z,7.18
2022-10-21T06:31:04.894Z,8.48
2022-10-21T06:33:32.037Z,7.95
2022-10-21T06:35:59.162Z,8.18
2022-10-21T06:38:26.729Z,7.07
2022-10-21T06:41:01.397Z,9.98
2022-10-21T06:43:28.595Z,10.65
2022-10-21T06:46:05.560Z,10.00
2022-10-21T06:48:33.347Z,7.50
2022-10-21T06:51:11.782Z,8.00
2022-10-21T06:53:39.388Z,9.25
2022-10-21T06:56:18.988Z,8.63
2022-10-21T06:58:49.183Z,7.68
2022-10-21T07:01:33.618Z,8.32
2022-10-21T07:04:03.476Z,6.15
2022-10-21T07:06:30.574Z,8.10
2022-10-21T07:08:58.954Z,8.35
2022-10-21T07:11:28.238Z,8.63
2022-10-21T07:13:55.947Z,8.48
2022-10-21T07:16:35.573Z,7.75
2022-10-21T07:19:03.353Z,6.80
2022-10-21T07:21:31.595Z,8.05
2022-10-21T07:24:00.119Z,8.27
2022-10-21T07:26:30.892Z,9.97
2022-10-21T07:29:02.700Z,8.73
2022-10-21T07:31:35.601Z,11.18
2022-10-21T07:34:05.786Z,10.00
2022-10-21T07:36:37.120Z,7.80
2022-10-21T07:39:11.638Z,9.73
2022-10-21T07:41:48.952Z,8.02
2022-10-21T07:44:21.980Z,8.43
2022-10-21T07:46:50.108Z,13.25
2022-10-21T07:49:18.795Z,7.55
2022-10-21T07:51:46.512Z,8.65
2022-10-21T07:54:14.581Z,7.10
2022-10-21T07:56:50.324Z,11.30
2022-10-21T07:59:19.529Z,8.52
2022-10-21T08:04:25.005Z,7.05
2022-10-21T08:06:51.865Z,6.88
2022-10-21T08:09:18.829Z,8.25
2022-10-21T08:11:45.937Z,7.53
2022-10-21T08:14:13.550Z,8.85
2022-10-21T08:16:40.889Z,12.25
2022-10-21T08:19:08.772Z,6.53
2022-10-21T08:21:37.610Z,7.25
2022-10-21T08:24:05.057Z,9.60
2022-10-21T08:26:32.187Z,6.75
2022-10-21T08:31:30.962Z,6.07
2022-10-21T08:33:58.128Z,7.90
2022-10-21T08:36:27.821Z,11.15
2022-10-21T08:38:54.907Z,7.15
2022-10-21T08:41:30.917Z,7.93
2022-10-21T08:44:22.625Z,10.02
2022-10-21T08:47:31.009Z,8.00
2022-10-21T08:50:06.614Z,6.88
2022-10-21T08:52:42.165Z,7.30
2022-10-21T08:55:32.983Z,7.28
2022-10-21T08:58:04.417Z,9.18
2022-10-21T09:01:25.504Z,9.48
2022-10-21T09:04:33.137Z,9.02
2022-10-21T09:07:22.680Z,6.43
2022-10-21T09:10:02.530Z,6.47
2022-10-21T09:12:56.854Z,10.18
2022-10-21T09:15:45.987Z,6.78
2022-10-21T09:18:55.312Z,9.40
2022-10-21T09:22:34.367Z,6.13
2022-10-21T09:25:24.778Z,6.55
2022-10-21T09:27:57.310Z,7.57
2022-10-21T09:30:26.209Z,10.40
2022-10-21T09:33:00.341Z,8.25
2022-10-21T09:35:59.176Z,6.75
2022-10-21T09:38:46.543Z,5.60
2022-10-21T09:41:31.801Z,8.90
2022-10-21T09:43:58.506Z,8.55
2022-10-21T09:46:25.520Z,6.50
2022-10-21T09:51:45.332Z,6.72
2022-10-21T09:54:21.848Z,6.47
2022-10-21T09:57:10.327Z,8.82
2022-10-21T10:00:00.793Z,8.18
2022-10-21T10:02:46.158Z,5.45
2022-10-21T10:05:49.622Z,5.95
2022-10-21T10:08:30.846Z,4.78
2022-10-21T10:11:11.172Z,5.75
2022-10-21T10:13:42.690Z,6.13
2022-10-21T10:16:31.418Z,6.25
2022-10-21T10:19:21.391Z,8.55
2022-10-21T10:22:10.388Z,7.20
2022-10-21T10:24:40.475Z,5.55
2022-10-21T10:27:23.669Z,6.28
2022-10-21T10:29:57.481Z,8.40
2022-10-21T10:32:31.577Z,7.30
2022-10-21T10:35:04.022Z,7.68
2022-10-21T10:37:36.955Z,5.75
2022-10-21T10:40:09.318Z,5.25
2022-10-21T10:42:43.994Z,4.55
2022-10-21T10:45:22.373Z,5.53
2022-10-21T10:47:57.548Z,6.05
2022-10-21T10:50:50.768Z,7.57
2022-10-21T10:53:36.798Z,4.45
2022-10-21T10:56:24.340Z,3.55
2022-10-21T10:59:15.824Z,4.85
2022-10-21T11:02:09.892Z,6.22
2022-10-21T11:05:20.604Z,4.00
2022-10-21T11:08:01.548Z,6.85
2022-10-21T11:10:34.065Z,8.52
2022-10-21T11:13:04.807Z,5.63
2022-10-21T11:15:41.870Z,9.88
2022-10-21T11:18:54.538Z,3.75
2022-10-21T11:21:33.231Z,4.03
2022-10-21T11:24:30.165Z,5.55
2022-10-21T11:27:25.712Z,3.83
2022-10-21T11:30:14.761Z,3.13
2022-10-21T11:33:33.128Z,5.65
2022-10-21T11:36:29.461Z,3.75
2022-10-21T11:39:12.357Z,2.95
2022-10-21T11:41:56.544Z,4.30
2022-10-21T11:45:02.372Z,4.28
2022-10-21T11:47:55.271Z,3.13
2022-10-21T11:50:53.716Z,2.55
2022-10-21T11:54:12.172Z,2.05
2022-10-21T11:56:43.113Z,2.33
2022-10-21T11:59:45.082Z,3.03
2022-10-21T12:02:32.797Z,2.92
2022-10-21T12:05:37.436Z,4.03
2022-10-21T12:08:20.075Z,2.75
2022-10-21T12:11:14.489Z,3.05
2022-10-21T12:14:30.174Z,3.13
2022-10-21T12:17:04.187Z,3.13
2022-10-21T12:19:31.921Z,2.75
2022-10-21T12:21:58.997Z,3.20
2022-10-21T12:24:41.707Z,3.58
2022-10-21T12:27:59.791Z,3.08
2022-10-21T12:30:54.885Z,2.55
2022-10-21T12:34:00.492Z,2.42
2022-10-21T12:36:43.253Z,2.17
2022-10-21T12:39:34.914Z,2.47
2022-10-21T12:42:16.749Z,6.68
2022-10-21T12:44:51.134Z,4.05
2022-10-21T12:47:34.652Z,3.33
2022-10-21T12:50:29.868Z,2.83
2022-10-21T12:53:30.666Z,2.30
2022-10-21T12:56:33.233Z,3.35
2022-10-21T12:59:06.093Z,2.55
2022-10-21T13:01:45.202Z,2.97
2022-10-21T13:04:34.026Z,4.53
2022-10-21T13:07:28.669Z,3.53
2022-10-21T13:09:55.308Z,4.15
2022-10-21T13:12:24.783Z,3.60
2022-10-21T13:14:55.820Z,5.78
2022-10-21T13:17:22.674Z,2.72
2022-10-21T13:19:52.653Z,4.70
2022-10-21T13:22:40.189Z,3.00
2022-10-21T13:25:16.328Z,11.65
2022-10-21T13:27:51.189Z,4.15
2022-10-21T13:30:36.817Z,3.28
2022-10-21T13:33:22.848Z,2.42
2022-10-21T13:36:17.107Z,2.35
2022-10-21T13:38:55.357Z,2.38
2022-10-21T13:41:30.473Z,2.85
2022-10-21T13:44:05.265Z,5.60
2022-10-21T13:46:43.298Z,4.10
2022-10-21T13:49:33.336Z,3.33
2022-10-21T13:52:00.254Z,2.28
2022-10-21T13:54:34.424Z,4.25
2022-10-21T13:57:07.805Z,2.90
2022-10-21T13:59:34.874Z,3.08
2022-10-21T14:02:02.114Z,3.75
2022-10-21T14:04:32.930Z,8.52
2022-10-21T14:07:08.951Z,2.63
2022-10-21T14:09:45.029Z,2.20
2022-10-21T14:12:35.836Z,3.47
2022-10-21T14:15:29.609Z,2.13
2022-10-21T14:17:59.561Z,4.32
2022-10-21T14:20:33.931Z,2.58
2022-10-21T14:23:14.611Z,2.55
2022-10-21T14:25:42.413Z,3.03
2022-10-21T14:28:12.160Z,4.35
2022-10-21T14:30:39.545Z,1.95
2022-10-21T14:33:08.489Z,6.68
2022-10-21T14:35:35.412Z,1.83
2022-10-21T14:38:24.396Z,4.10
2022-10-21T14:41:00.140Z,2.25
2022-10-21T14:43:40.564Z,4.07
2022-10-21T14:46:09.864Z,2.83
2022-10-21T14:49:01.080Z,3.72
2022-10-21T14:51:28.115Z,1.88
2022-10-21T14:53:59.945Z,2.05
2022-10-21T14:56:42.722Z,1.98
2022-10-21T14:59:39.183Z,6.10
2022-10-21T15:02:18.480Z,3.22
2022-10-21T15:04:59.863Z,1.67
2022-10-21T15:07:37.981Z,2.88
2022-10-21T15:10:04.744Z,5.20
2022-10-21T15:12:52.645Z,3.80
2022-10-21T15:15:52.525Z,2.25
2022-10-21T15:18:43.150Z,2.90
2022-10-21T15:21:38.535Z,3.13
2022-10-21T15:24:07.212Z,1.95
2022-10-21T15:26:41.029Z,1.60
2022-10-21T15:29:21.665Z,7.22
2022-10-21T15:31:48.580Z,2.60
2022-10-21T15:34:16.664Z,1.27
2022-10-21T15:36:44.057Z,4.15
2022-10-21T15:39:13.733Z,2.85
2022-10-21T15:41:41.275Z,3.17
2022-10-21T15:44:21.056Z,2.67
2022-10-21T15:46:50.331Z,2.08
2022-10-21T15:49:23.306Z,3.20
2022-10-21T15:51:50.904Z,2.80
2022-10-21T15:54:21.603Z,2.58
2022-10-21T15:56:55.249Z,3.45
2022-10-21T15:59:26.551Z,3.92
2022-10-21T16:01:55.161Z,1.00
2022-10-21T16:04:23.292Z,2.28
2022-10-21T16:06:53.329Z,2.20
2022-10-21T16:09:58.706Z,4.68
2022-10-21T16:12:25.638Z,2.97
2022-10-21T16:14:54.684Z,1.55
2022-10-21T16:17:24.124Z,1.65
2022-10-21T16:19:50.822Z,4.50
2022-10-21T16:22:22.012Z,1.90
2022-10-21T16:24:48.712Z,1.55
2022-10-21T16:27:31.191Z,2.95
2022-10-21T16:30:33.193Z,2.53
2022-10-21T16:33:00.181Z,2.42
2022-10-21T16:35:27.218Z,3.33
2022-10-21T16:37:55.575Z,4.28
2022-10-21T16:40:31.532Z,4.30
2022-10-21T16:42:58.554Z,4.20
2022-10-21T16:45:30.858Z,10.93
2022-10-21T16:48:00.829Z,9.02
2022-10-21T16:50:40.521Z,11.32
2022-10-21T16:53:15.511Z,10.95
2022-10-21T16:55:44.325Z,12.43
2022-10-21T16:58:18.128Z,10.82
2022-10-21T17:00:46.715Z,18.35
2022-10-21T17:03:13.550Z,14.00
2022-10-21T17:05:40.932Z,15.50
2022-10-21T17:08:07.623Z,17.80
2022-10-21T17:10:34.391Z,19.10
2022-10-21T17:13:09.744Z,14.60
2022-10-21T17:15:36.569Z,17.77
2022-10-21T17:18:04.228Z,12.77
2022-10-21T17:20:32.721Z,12.98
2022-10-21T17:23:01.122Z,12.27
2022-10-21T17:25:30.165Z,11.50
2022-10-21T17:27:57.961Z,10.10
2022-10-21T17:30:24.964Z,7.57
2022-10-21T17:32:51.807Z,8.70
2022-10-21T17:35:18.660Z,5.90
2022-10-21T17:37:51.155Z,5.05
2022-10-21T17:40:23.028Z,4.97
2022-10-21T17:42:59.462Z,5.60
2022-10-21T17:45:28.487Z,5.80
2022-10-21T17:47:55.190Z,5.20
2022-10-21T17:50:25.889Z,4.45
2022-10-21T17:52:54.801Z,3.88
2022-10-21T17:55:22.010Z,3.55
2022-10-21T17:57:50.820Z,4.22
2022-10-21T18:00:17.689Z,2.70
2022-10-21T18:02:44.390Z,3.75
2022-10-21T18:05:12.321Z,4.28
2022-10-21T18:07:40.371Z,4.45
2022-10-21T18:10:09.010Z,4.15
2022-10-21T18:12:35.853Z,3.45
2022-10-21T18:15:03.246Z,2.33
2022-10-21T18:17:29.947Z,2.47
2022-10-21T18:19:56.733Z,4.97
2022-10-21T18:22:23.637Z,3.25
2022-10-21T18:24:52.764Z,6.38
2022-10-21T18:27:19.598Z,4.43
2022-10-21T18:29:46.458Z,3.22
2022-10-21T18:32:14.771Z,2.92
2022-10-21T18:34:42.373Z,3.58
2022-10-21T18:37:09.391Z,5.90
2022-10-21T18:39:36.318Z,6.72
2022-10-21T18:42:03.007Z,4.90
2022-10-21T18:44:30.332Z,2.92
2022-10-21T18:46:58.075Z,2.83
2022-10-21T18:49:24.866Z,5.18
2022-10-21T18:51:51.565Z,4.40
2022-10-21T18:54:18.887Z,4.53
2022-10-21T18:56:45.728Z,2.72
2022-10-21T18:59:12.694Z,3.28
2022-10-21T19:01:40.303Z,3.33
2022-10-21T19:04:07.288Z,4.60
2022-10-21T19:06:46.704Z,5.40
2022-10-21T19:09:20.150Z,4.15
2022-10-21T19:11:47.969Z,4.18
2022-10-21T19:14:17.362Z,4.43
2022-10-21T19:16:47.001Z,2.75
2022-10-21T19:19:17.958Z,2.65
2022-10-21T19:21:46.450Z,4.53
2022-10-21T19:24:14.593Z,3.47
2022-10-21T19:26:44.764Z,2.97
2022-10-21T19:29:16.538Z,3.63
2022-10-21T19:31:44.755Z,4.78
2022-10-21T19:34:22.455Z,5.97
2022-10-21T19:36:49.876Z,2.75
2022-10-21T19:39:17.173Z,2.83
2022-10-21T19:41:43.996Z,6.65
2022-10-21T19:44:13.555Z,4.72
2022-10-21T19:46:40.508Z,6.30
2022-10-21T19:49:09.430Z,3.10
2022-10-21T19:51:37.372Z,6.60
2022-10-21T19:54:10.142Z,3.05
2022-10-21T19:56:36.934Z,5.78
2022-10-21T19:59:04.845Z,4.20
2022-10-21T20:01:33.629Z,4.18
2022-10-21T20:04:03.605Z,3.65
2022-10-21T20:06:34.010Z,2.97
2022-10-21T20:09:08.067Z,2.45
2022-10-21T20:11:35.831Z,4.20
2022-10-21T20:14:04.529Z,2.67
2022-10-21T20:16:39.034Z,3.13
2022-10-21T20:19:07.534Z,3.17
2022-10-21T20:21:36.126Z,1.67
2022-10-21T20:24:03.775Z,2.83
2022-10-21T20:26:31.005Z,3.88
2022-10-21T20:29:00.546Z,2.55
2022-10-21T20:31:27.716Z,2.53
2022-10-21T20:33:54.901Z,3.10
2022-10-21T20:36:32.630Z,3.85
2022-10-21T20:39:02.805Z,1.45
2022-10-21T20:41:34.602Z,2.63
2022-10-21T20:44:03.155Z,2.53
2022-10-21T20:46:34.724Z,2.47
2022-10-21T20:49:02.019Z,3.78
2022-10-21T20:51:29.889Z,3.17
2022-10-21T20:54:00.301Z,4.43
2022-10-21T20:56:31.235Z,4.22
2022-10-21T20:58:59.100Z,2.95
2022-10-21T21:01:35.493Z,4.20
2022-10-21T21:04:10.512Z,3.55
2022-10-21T21:06:42.136Z,3.55
2022-10-21T21:14:31.228Z,2.70
2022-10-21T21:16:58.145Z,2.42
2022-10-21T21:19:27.966Z,4.53
2022-10-21T21:21:54.663Z,3.17
2022-10-21T21:24:22.741Z,2.72
2022-10-21T21:26:49.460Z,5.07
2022-10-21T21:29:16.398Z,3.13
2022-10-21T21:31:43.569Z,4.88
2022-10-21T21:34:10.852Z,2.35
2022-10-21T21:36:37.775Z,2.30
2022-10-21T21:39:07.997Z,2.10
2022-10-21T21:41:35.845Z,3.72
2022-10-21T21:44:04.581Z,7.57
2022-10-21T21:46:31.481Z,5.45
2022-10-21T21:49:06.258Z,4.65
2022-10-21T21:51:36.361Z,5.78
2022-10-21T21:54:07.543Z,4.28
2022-10-21T21:56:35.586Z,3.55
2022-10-21T21:59:02.701Z,5.07
2022-10-21T22:01:29.761Z,3.10
2022-10-21T22:03:57.711Z,4.05
2022-10-21T22:06:29.522Z,4.40
2022-10-21T22:08:56.812Z,5.22
2022-10-21T22:11:32.520Z,2.58
2022-10-21T22:13:59.997Z,3.03
2022-10-21T22:16:29.949Z,2.58
2022-10-21T22:18:59.859Z,3.85
2022-10-21T22:21:29.815Z,2.70
2022-10-21T22:23:58.521Z,2.13
2022-10-21T22:26:26.833Z,1.88
2022-10-21T22:28:54.649Z,2.35
2022-10-21T22:31:27.176Z,1.55
2022-10-21T22:33:57.085Z,2.92
2022-10-21T22:36:23.754Z,4.28
2022-10-21T22:38:50.421Z,4.13
2022-10-21T22:41:17.112Z,2.28
2022-10-21T22:43:43.963Z,11.27
2022-10-21T22:48:57.866Z,3.05
2022-10-21T22:51:24.610Z,3.08
2022-10-21T22:53:55.381Z,2.90
2022-10-21T22:56:25.735Z,3.80
2022-10-21T22:58:52.487Z,3.38
2022-10-21T23:01:19.641Z,1.95
2022-10-21T23:03:46.314Z,1.70
2022-10-21T23:06:13.037Z,7.45
2022-10-21T23:08:39.783Z,2.88
2022-10-21T23:11:06.608Z,5.53
2022-10-21T23:13:33.561Z,3.03
2022-10-21T23:16:00.262Z,8.27
2022-10-21T23:18:26.948Z,3.38
2022-10-21T23:20:53.745Z,4.40
2022-10-21T23:23:20.479Z,2.95
2022-10-21T23:25:47.204Z,3.10
2022-10-21T23:28:13.923Z,3.28
2022-10-21T23:30:40.944Z,2.90
2022-10-21T23:33:07.914Z,5.47
2022-10-21T23:35:35.425Z,5.05
2022-10-21T23:38:02.332Z,5.80
2022-10-21T23:40:29.083Z,6.22
2022-10-21T23:42:56.137Z,2.53
2022-10-21T23:45:24.095Z,2.65
2022-10-21T23:47:51.867Z,3.50
2022-10-21T23:50:18.664Z,4.20
2022-10-21T23:52:45.453Z,3.22
2022-10-21T23:55:12.171Z,4.43
2022-10-21T23:57:39.204Z,4.38
